createdAt,value
2022-12-18T00:01:24.614Z,11.90
2022-12-18T00:03:52.223Z,12.25
2022-12-18T00:06:19.884Z,14.43
2022-12-18T00:08:47.453Z,12.52
2022-12-18T00:11:23.363Z,13.27
2022-12-18T00:13:50.630Z,13.60
2022-12-18T00:16:21.430Z,10.73
2022-12-18T00:18:49.282Z,12.02
2022-12-18T00:21:16.378Z,13.13
2022-12-18T00:23:44.761Z,13.95
2022-12-18T00:26:17.320Z,13.03
2022-12-18T00:28:44.351Z,12.93
2022-12-18T00:31:14.402Z,12.45
2022-12-18T00:33:41.499Z,13.52
2022-12-18T00:36:11.740Z,13.73
2022-12-18T00:38:39.523Z,11.37
2022-12-18T00:41:08.356Z,11.48
2022-12-18T00:43:35.469Z,12.60
2022-12-18T00:46:02.313Z,11.20
2022-12-18T00:48:28.783Z,16.20
2022-12-18T00:50:55.277Z,12.50
2022-12-18T00:53:21.770Z,13.13
2022-12-18T00:55:48.489Z,12.50
2022-12-18T00:58:17.229Z,12.70
2022-12-18T01:00:44.156Z,12.50
2022-12-18T01:03:14.336Z,11.43
2022-12-18T01:05:41.885Z,12.18
2022-12-18T01:08:08.249Z,13.20
2022-12-18T01:10:34.650Z,12.52
2022-12-18T01:13:01.024Z,12.90
2022-12-18T01:15:27.506Z,13.30
2022-12-18T01:17:54.429Z,11.55
2022-12-18T01:20:21.562Z,11.48
2022-12-18T01:22:47.929Z,12.18
2022-12-18T01:25:14.358Z,14.07
2022-12-18T01:27:40.790Z,13.73
2022-12-18T01:30:07.825Z,12.30
2022-12-18T01:32:34.323Z,12.65
2022-12-18T01:35:00.670Z,11.02
2022-12-18T01:37:27.141Z,13.02
2022-12-18T01:39:55.189Z,14.17
2022-12-18T01:42:22.345Z,12.57
2022-12-18T01:44:57.680Z,12.38
2022-12-18T01:47:42.240Z,11.95
2022-12-18T01:50:23.806Z,14.00
2022-12-18T01:52:57.648Z,11.60
2022-12-18T01:55:27.113Z,13.60
2022-12-18T01:57:56.047Z,14.13
2022-12-18T02:00:24.582Z,13.38
2022-12-18T02:02:51.083Z,11.88
2022-12-18T02:05:30.073Z,13.30
2022-12-18T02:08:11.649Z,11.65
2022-12-18T02:10:52.866Z,12.10
2022-12-18T02:13:44.165Z,12.90
2022-12-18T02:16:19.755Z,11.45
2022-12-18T02:18:51.903Z,11.70
2022-12-18T02:21:28.738Z,11.80
2022-12-18T02:24:20.486Z,12.02
2022-12-18T02:26:51.120Z,11.20
2022-12-18T02:29:32.468Z,11.80
2022-12-18T02:32:00.497Z,10.67
2022-12-18T02:34:33.765Z,11.45
2022-12-18T02:37:03.239Z,11.60
2022-12-18T02:39:31.698Z,12.20
2022-12-18T02:42:00.360Z,11.52
2022-12-18T02:44:26.833Z,11.80
2022-12-18T02:46:54.968Z,12.02
2022-12-18T02:49:37.836Z,10.60
2022-12-18T02:52:22.450Z,10.88
2022-12-18T02:55:01.437Z,10.38
2022-12-18T02:57:40.739Z,11.43
2022-12-18T03:00:19.576Z,11.40
2022-12-18T03:03:09.032Z,11.63
2022-12-18T03:05:51.254Z,10.27
2022-12-18T03:08:25.178Z,10.93
2022-12-18T03:11:05.613Z,10.73
2022-12-18T03:13:45.914Z,10.15
2022-12-18T03:16:18.825Z,10.43
2022-12-18T03:18:53.806Z,10.75
2022-12-18T03:21:25.273Z,9.35
2022-12-18T03:23:54.007Z,9.60
2022-12-18T03:26:25.586Z,11.73
2022-12-18T03:29:03.084Z,10.32
2022-12-18T03:31:32.870Z,10.00
2022-12-18T03:34:05.156Z,9.85
2022-12-18T03:36:31.577Z,9.10
2022-12-18T03:38:59.377Z,8.38
2022-12-18T03:41:28.773Z,8.30
2022-12-18T03:44:31.306Z,10.10
2022-12-18T03:47:20.392Z,9.27
2022-12-18T03:49:58.914Z,8.60
2022-12-18T03:52:37.224Z,9.07
2022-12-18T03:55:06.444Z,10.50
2022-12-18T03:57:33.705Z,8.25
2022-12-18T04:00:05.036Z,9.43
2022-12-18T04:02:33.275Z,9.00
2022-12-18T04:05:03.548Z,8.68
2022-12-18T04:07:30.201Z,10.68
2022-12-18T04:09:59.469Z,7.82
2022-12-18T04:12:27.204Z,9.27
2022-12-18T04:14:53.599Z,8.43
2022-12-18T04:17:20.002Z,8.32
2022-12-18T04:19:46.337Z,9.50
2022-12-18T04:22:12.725Z,7.35
2022-12-18T04:24:39.356Z,8.00
2022-12-18T04:27:06.078Z,7.53
2022-12-18T04:29:33.001Z,8.65
2022-12-18T04:31:59.377Z,9.75
2022-12-18T04:34:26.258Z,7.85
2022-12-18T04:36:52.620Z,7.03
2022-12-18T04:39:18.933Z,7.00
2022-12-18T04:41:45.374Z,8.23
2022-12-18T04:44:12.084Z,7.18
2022-12-18T04:46:38.549Z,7.50
2022-12-18T04:49:04.941Z,8.13
2022-12-18T04:51:31.273Z,6.53
2022-12-18T04:53:57.677Z,6.63
2022-12-18T04:56:24.109Z,6.63
2022-12-18T04:58:50.504Z,7.22
2022-12-18T05:01:18.818Z,6.43
2022-12-18T05:03:46.016Z,6.77
2022-12-18T05:06:12.618Z,6.95
2022-12-18T05:08:39.356Z,5.45
2022-12-18T05:11:10.261Z,5.40
2022-12-18T05:13:37.357Z,5.05
2022-12-18T05:16:04.815Z,5.83
2022-12-18T05:18:32.015Z,6.30
2022-12-18T05:20:58.476Z,5.70
2022-12-18T05:23:25.711Z,5.82
2022-12-18T05:26:03.042Z,5.28
2022-12-18T05:28:31.665Z,6.07
2022-12-18T05:31:00.822Z,4.93
2022-12-18T05:33:30.172Z,5.53
2022-12-18T05:36:03.636Z,6.72
2022-12-18T05:38:32.111Z,6.55
2022-12-18T05:40:59.186Z,4.70
2022-12-18T05:43:27.168Z,6.85
2022-12-18T05:45:54.265Z,5.68
2022-12-18T05:48:21.765Z,5.38
2022-12-18T05:50:49.661Z,5.32
2022-12-18T05:53:17.979Z,5.43
2022-12-18T05:55:45.128Z,5.82
2022-12-18T05:58:13.268Z,6.00
2022-12-18T06:00:44.084Z,4.63
2022-12-18T06:03:12.690Z,6.10
2022-12-18T06:05:41.917Z,4.77
2022-12-18T06:08:08.979Z,6.88
2022-12-18T06:10:35.406Z,5.90
2022-12-18T06:13:01.810Z,5.82
2022-12-18T06:15:28.361Z,5.22
2022-12-18T06:17:55.141Z,5.50
2022-12-18T06:20:21.705Z,5.93
2022-12-18T06:22:48.083Z,4.80
2022-12-18T06:25:14.493Z,4.43
2022-12-18T06:27:40.954Z,4.15
2022-12-18T06:30:09.468Z,3.33
2022-12-18T06:32:35.853Z,4.50
2022-12-18T06:35:02.222Z,6.57
2022-12-18T06:37:29.167Z,5.05
2022-12-18T06:39:55.616Z,4.65
2022-12-18T06:42:25.594Z,5.30
2022-12-18T06:44:51.987Z,5.13
2022-12-18T06:47:19.110Z,4.28
2022-12-18T06:49:45.468Z,3.60
2022-12-18T06:52:11.862Z,4.97
2022-12-18T06:54:38.228Z,4.57
2022-12-18T06:57:04.726Z,4.32
2022-12-18T06:59:31.085Z,5.20
2022-12-18T07:01:57.577Z,4.40
2022-12-18T07:04:29.517Z,4.55
2022-12-18T07:06:55.907Z,5.80
2022-12-18T07:09:22.253Z,3.78
2022-12-18T07:11:48.659Z,4.38
2022-12-18T07:14:15.037Z,5.20
2022-12-18T07:16:41.837Z,4.38
2022-12-18T07:19:08.244Z,3.87
2022-12-18T07:21:34.627Z,5.35
2022-12-18T07:24:00.988Z,3.65
2022-12-18T07:26:27.422Z,4.43
2022-12-18T07:28:57.024Z,4.28
2022-12-18T07:31:23.517Z,4.67
2022-12-18T07:33:51.074Z,5.57
2022-12-18T07:36:18.062Z,3.50
2022-12-18T07:38:47.546Z,4.18
2022-12-18T07:41:14.737Z,3.72
2022-12-18T07:43:42.386Z,4.07
2022-12-18T07:46:10.285Z,4.97
2022-12-18T07:48:36.714Z,3.95
2022-12-18T07:51:05.238Z,4.05
2022-12-18T07:53:32.594Z,4.93
2022-12-18T07:56:26.020Z,3.83
2022-12-18T07:58:50.185Z,3.47
2022-12-18T08:01:16.610Z,4.43
2022-12-18T08:03:43.682Z,3.83
2022-12-18T08:06:10.952Z,4.05
2022-12-18T08:08:37.997Z,3.93
2022-12-18T08:11:04.521Z,4.63
2022-12-18T08:13:30.866Z,3.78
2022-12-18T08:16:15.119Z,4.07
2022-12-18T08:18:41.498Z,3.85
2022-12-18T08:21:13.609Z,3.90
2022-12-18T08:23:43.307Z,4.82
2022-12-18T08:26:10.444Z,4.18
2022-12-18T08:28:36.809Z,3.67
2022-12-18T08:31:03.618Z,6.05
2022-12-18T08:33:30.049Z,4.03
2022-12-18T08:35:56.437Z,4.95
2022-12-18T08:38:23.818Z,4.63
2022-12-18T08:40:50.165Z,4.15
2022-12-18T08:43:35.305Z,5.05
2022-12-18T08:46:01.740Z,4.83
2022-12-18T08:48:28.134Z,5.43
2022-12-18T08:50:59.099Z,5.40
2022-12-18T08:53:26.007Z,4.10
2022-12-18T08:55:53.215Z,4.50
2022-12-18T08:58:20.135Z,4.13
2022-12-18T09:00:46.737Z,4.90
2022-12-18T09:03:14.536Z,4.80
2022-12-18T09:05:41.113Z,5.15
2022-12-18T09:08:07.754Z,4.68
2022-12-18T09:10:36.554Z,5.07
2022-12-18T09:13:06.604Z,4.85
2022-12-18T09:15:32.975Z,4.97
2022-12-18T09:17:59.389Z,4.43
2022-12-18T09:20:25.798Z,4.93
2022-12-18T09:22:52.122Z,5.40
2022-12-18T09:25:18.481Z,4.60
2022-12-18T09:27:48.044Z,4.97
2022-12-18T09:30:14.426Z,4.28
2022-12-18T09:32:40.745Z,4.43
2022-12-18T09:35:07.342Z,4.10
2022-12-18T09:37:33.698Z,5.88
2022-12-18T09:40:00.015Z,4.32
2022-12-18T09:42:26.361Z,4.97
2022-12-18T09:44:55.320Z,4.55
2022-12-18T09:47:27.145Z,4.73
2022-12-18T09:50:00.507Z,4.82
2022-12-18T09:52:47.077Z,3.95
2022-12-18T09:55:25.856Z,3.58
2022-12-18T09:57:57.277Z,3.78
2022-12-18T10:00:25.986Z,3.87
2022-12-18T10:02:57.367Z,3.53
2022-12-18T10:05:54.953Z,4.53
2022-12-18T10:08:29.423Z,4.22
2022-12-18T10:11:12.011Z,3.95
2022-12-18T10:14:02.305Z,4.30
2022-12-18T10:16:40.870Z,3.22
2022-12-18T10:19:31.838Z,5.07
2022-12-18T10:22:28.364Z,3.75
2022-12-18T10:25:23.781Z,4.35
2022-12-18T10:27:56.172Z,4.03
2022-12-18T10:30:25.216Z,3.53
2022-12-18T10:32:52.214Z,4.63
2022-12-18T10:35:24.362Z,2.85
2022-12-18T10:38:22.362Z,3.38
2022-12-18T10:40:48.657Z,4.23
2022-12-18T10:43:17.170Z,3.42
2022-12-18T10:46:00.180Z,4.07
2022-12-18T10:48:28.098Z,4.30
2022-12-18T10:51:10.874Z,4.72
2022-12-18T10:53:42.317Z,2.87
2022-12-18T10:56:09.572Z,3.50
2022-12-18T10:58:38.735Z,3.67
2022-12-18T11:01:12.831Z,4.85
2022-12-18T11:03:42.044Z,3.75
2022-12-18T11:06:12.702Z,4.23
2022-12-18T11:08:40.601Z,4.85
2022-12-18T11:11:22.025Z,3.63
2022-12-18T11:14:04.997Z,4.13
2022-12-18T11:16:36.911Z,3.67
2022-12-18T11:19:36.861Z,3.73
2022-12-18T11:22:20.378Z,3.80
2022-12-18T11:28:27.491Z,4.28
2022-12-18T11:31:33.614Z,3.33
2022-12-18T11:34:28.163Z,3.43
2022-12-18T11:36:53.682Z,2.63
2022-12-18T11:39:43.527Z,3.63
2022-12-18T11:42:18.181Z,3.38
2022-12-18T11:45:18.147Z,3.53
2022-12-18T11:47:57.827Z,3.60
2022-12-18T11:51:03.527Z,3.65
2022-12-18T11:53:31.270Z,3.88
2022-12-18T11:56:06.975Z,3.78
2022-12-18T11:58:48.754Z,4.47
2022-12-18T12:01:21.117Z,2.70
2022-12-18T12:04:08.045Z,3.35
2022-12-18T12:07:07.987Z,4.25
2022-12-18T12:09:56.088Z,3.40
2022-12-18T12:12:54.788Z,3.95
2022-12-18T12:15:47.665Z,4.40
2022-12-18T12:18:28.859Z,3.47
2022-12-18T12:21:23.642Z,3.70
2022-12-18T12:24:05.031Z,4.00
2022-12-18T12:26:43.641Z,3.90
2022-12-18T12:29:31.349Z,4.27
2022-12-18T12:32:17.505Z,3.80
2022-12-18T12:34:48.491Z,3.95
2022-12-18T12:37:32.256Z,4.22
2022-12-18T12:40:07.275Z,4.95
2022-12-18T12:43:11.067Z,4.00
2022-12-18T12:45:45.596Z,3.50
2022-12-18T12:48:20.540Z,3.63
2022-12-18T12:50:48.286Z,4.18
2022-12-18T12:53:27.438Z,4.38
2022-12-18T12:55:55.545Z,3.90
2022-12-18T12:59:04.070Z,4.47
2022-12-18T13:01:45.453Z,3.63
2022-12-18T13:04:49.470Z,4.35
2022-12-18T13:07:33.558Z,4.03
2022-12-18T13:10:20.584Z,3.93
2022-12-18T13:12:58.327Z,4.00
2022-12-18T13:15:41.837Z,4.03
2022-12-18T13:18:11.238Z,4.03
2022-12-18T13:20:46.587Z,4.40
2022-12-18T13:23:29.499Z,4.30
2022-12-18T13:26:27.960Z,3.80
2022-12-18T13:28:56.214Z,4.05
2022-12-18T13:31:31.955Z,4.22
2022-12-18T13:34:32.684Z,4.35
2022-12-18T13:37:33.983Z,3.43
2022-12-18T13:40:00.713Z,4.00
2022-12-18T13:42:49.266Z,4.32
2022-12-18T13:45:57.674Z,4.03
2022-12-18T13:48:26.845Z,4.15
2022-12-18T13:50:58.662Z,4.40
2022-12-18T13:53:40.126Z,4.57
2022-12-18T13:56:06.989Z,4.57
2022-12-18T13:58:34.001Z,4.22
2022-12-18T14:01:02.879Z,4.82
2022-12-18T14:03:31.490Z,4.20
2022-12-18T14:06:03.354Z,4.43
2022-12-18T14:08:36.303Z,3.85
2022-12-18T14:11:06.109Z,4.65
2022-12-18T14:13:38.290Z,4.90
2022-12-18T14:16:06.621Z,4.80
2022-12-18T14:18:49.865Z,4.85
2022-12-18T14:21:24.031Z,4.25
2022-12-18T14:24:04.596Z,4.43
2022-12-18T14:26:34.063Z,4.05
2022-12-18T14:29:18.558Z,5.37
2022-12-18T14:31:45.528Z,4.13
2022-12-18T14:34:27.638Z,4.75
2022-12-18T14:36:56.238Z,4.72
2022-12-18T14:39:23.165Z,4.35
2022-12-18T14:41:50.801Z,5.23
2022-12-18T14:44:17.318Z,4.70
2022-12-18T14:46:46.730Z,3.92
2022-12-18T14:49:25.394Z,4.65
2022-12-18T14:52:04.093Z,4.18
2022-12-18T14:54:32.094Z,4.90
2022-12-18T14:57:03.372Z,4.95
2022-12-18T14:59:31.229Z,4.82
2022-12-18T15:02:22.925Z,4.80
2022-12-18T15:05:01.408Z,4.35
2022-12-18T15:07:27.859Z,4.73
2022-12-18T15:10:21.087Z,4.90
2022-12-18T15:13:07.150Z,4.63
2022-12-18T15:15:40.514Z,4.65
2022-12-18T15:18:09.758Z,5.30
2022-12-18T15:20:47.218Z,5.80
2022-12-18T15:23:20.829Z,5.57
2022-12-18T15:25:49.378Z,4.72
2022-12-18T15:28:20.889Z,6.00
2022-12-18T15:31:10.037Z,5.47
2022-12-18T15:33:40.130Z,5.17
2022-12-18T15:36:12.597Z,4.70
2022-12-18T15:38:39.249Z,5.43
2022-12-18T15:41:22.868Z,5.40
2022-12-18T15:43:54.054Z,6.28
2022-12-18T15:46:23.158Z,5.57
2022-12-18T15:48:59.747Z,5.93
2022-12-18T15:51:34.314Z,5.18
2022-12-18T15:54:04.588Z,4.82
2022-12-18T15:56:49.939Z,5.18
2022-12-18T15:59:20.472Z,5.63
2022-12-18T16:01:48.987Z,5.70
2022-12-18T16:04:18.574Z,5.43
2022-12-18T16:07:13.243Z,5.07
2022-12-18T16:09:31.319Z,5.45
2022-12-18T16:12:00.312Z,5.93
2022-12-18T16:14:29.083Z,6.18
2022-12-18T16:17:09.907Z,6.07
2022-12-18T16:19:36.291Z,5.95
2022-12-18T16:22:02.703Z,5.43
2022-12-18T16:24:31.913Z,5.40
2022-12-18T16:27:00.223Z,5.35
2022-12-18T16:29:28.611Z,5.45
2022-12-18T16:32:00.128Z,6.18
2022-12-18T16:34:29.184Z,6.35
2022-12-18T16:37:01.728Z,6.23
2022-12-18T16:39:31.847Z,7.78
2022-12-18T16:41:58.621Z,5.72
2022-12-18T16:44:25.998Z,6.35
2022-12-18T16:46:52.482Z,5.70
2022-12-18T16:49:19.670Z,6.83
2022-12-18T16:51:49.401Z,6.07
2022-12-18T16:54:19.031Z,7.57
2022-12-18T16:56:49.647Z,6.03
2022-12-18T16:59:16.402Z,6.22
2022-12-18T17:01:42.866Z,6.50
2022-12-18T17:04:09.878Z,5.97
2022-12-18T17:06:40.477Z,6.38
2022-12-18T17:09:09.626Z,5.95
2022-12-18T17:11:36.581Z,6.15
2022-12-18T17:14:23.387Z,7.67
2022-12-18T17:17:07.463Z,7.00
2022-12-18T17:19:36.306Z,6.10
2022-12-18T17:22:02.820Z,6.18
2022-12-18T17:24:34.513Z,6.78
2022-12-18T17:27:02.202Z,6.27
2022-12-18T17:29:28.671Z,6.85
2022-12-18T17:31:55.042Z,7.35
2022-12-18T17:34:23.325Z,6.38
2022-12-18T17:36:49.671Z,7.20
2022-12-18T17:39:19.209Z,6.27
2022-12-18T17:41:46.242Z,6.22
2022-12-18T17:44:12.640Z,7.28
2022-12-18T17:46:39.417Z,6.68
2022-12-18T17:49:05.870Z,6.80
2022-12-18T17:51:32.307Z,6.53
2022-12-18T17:53:58.669Z,6.45
2022-12-18T17:56:25.952Z,7.10
2022-12-18T17:58:52.507Z,7.20
2022-12-18T18:01:21.837Z,6.38
2022-12-18T18:03:50.342Z,7.10
2022-12-18T18:06:20.302Z,6.40
2022-12-18T18:08:46.707Z,7.20
2022-12-18T18:11:34.911Z,7.28
2022-12-18T18:14:02.066Z,5.95
2022-12-18T18:16:32.578Z,7.10
2022-12-18T18:19:00.826Z,6.32
2022-12-18T18:21:28.709Z,6.82
2022-12-18T18:23:58.787Z,8.27
2022-12-18T18:26:26.124Z,7.30
2022-12-18T18:28:54.960Z,7.67
2022-12-18T18:31:22.153Z,6.00
2022-12-18T18:33:48.626Z,5.95
2022-12-18T18:36:15.124Z,6.75
2022-12-18T18:38:46.727Z,7.85
2022-12-18T18:41:15.352Z,7.33
2022-12-18T18:43:42.543Z,7.50
2022-12-18T18:46:12.060Z,6.40
2022-12-18T18:48:40.091Z,7.20
2022-12-18T18:51:13.939Z,6.90
2022-12-18T18:53:48.718Z,6.53
2022-12-18T18:59:04.023Z,6.80
2022-12-18T19:01:30.603Z,7.22
2022-12-18T19:03:57.109Z,6.70
2022-12-18T19:06:26.496Z,8.80
2022-12-18T19:08:54.750Z,6.55
2022-12-18T19:11:41.631Z,7.22
2022-12-18T19:14:11.280Z,6.97
2022-12-18T19:16:38.478Z,5.82
2022-12-18T19:19:05.207Z,5.93
2022-12-18T19:21:34.772Z,6.30
2022-12-18T19:24:02.559Z,7.07
2022-12-18T19:26:29.392Z,7.25
2022-12-18T19:29:07.802Z,7.80
2022-12-18T19:31:36.962Z,7.17
2022-12-18T19:34:07.493Z,6.82
2022-12-18T19:36:36.031Z,7.38
2022-12-18T19:39:11.843Z,7.18
2022-12-18T19:41:38.250Z,6.95
2022-12-18T19:44:07.819Z,7.60
2022-12-18T19:46:35.385Z,4.82
2022-12-18T19:49:01.825Z,8.30
2022-12-18T19:51:30.031Z,7.00
2022-12-18T19:53:59.390Z,6.68
2022-12-18T19:56:30.788Z,6.40
2022-12-18T19:58:57.667Z,7.13
2022-12-18T20:01:25.834Z,7.15
2022-12-18T20:03:55.333Z,6.97
2022-12-18T20:06:45.205Z,7.38
2022-12-18T20:09:11.591Z,6.40
2022-12-18T20:11:41.543Z,8.48
2022-12-18T20:14:09.590Z,8.35
2022-12-18T20:16:36.039Z,6.78
2022-12-18T20:19:04.021Z,8.25
2022-12-18T20:21:30.813Z,8.63
2022-12-18T20:23:59.025Z,7.95
2022-12-18T20:26:25.903Z,5.32
2022-12-18T20:28:53.727Z,7.40
2022-12-18T20:31:20.214Z,7.63
2022-12-18T20:33:48.562Z,9.03
2022-12-18T20:36:22.517Z,6.90
2022-12-18T20:38:55.734Z,7.75
2022-12-18T20:41:24.469Z,8.55
2022-12-18T20:43:50.875Z,8.30
2022-12-18T20:46:17.963Z,8.17
2022-12-18T20:48:46.221Z,7.15
2022-12-18T20:51:16.737Z,8.52
2022-12-18T20:53:43.976Z,7.40
2022-12-18T20:56:13.508Z,9.02
2022-12-18T20:58:44.485Z,8.80
2022-12-18T21:01:13.932Z,6.88
2022-12-18T21:03:42.030Z,8.68
2022-12-18T21:06:09.758Z,7.82
2022-12-18T21:08:37.380Z,6.90
2022-12-18T21:11:40.611Z,8.63
2022-12-18T21:14:14.013Z,8.98
2022-12-18T21:16:41.296Z,8.18
2022-12-18T21:19:07.786Z,8.23
2022-12-18T21:21:38.460Z,8.13
2022-12-18T21:24:05.946Z,10.07
2022-12-18T21:26:32.321Z,9.88
2022-12-18T21:29:01.776Z,9.10
2022-12-18T21:31:32.127Z,8.48
2022-12-18T21:34:02.452Z,9.05
2022-12-18T21:36:30.281Z,9.30
2022-12-18T21:38:58.424Z,8.45
2022-12-18T21:41:44.632Z,7.32
2022-12-18T21:44:16.797Z,8.77
2022-12-18T21:46:48.989Z,8.73
2022-12-18T21:49:23.429Z,8.23
2022-12-18T21:51:52.318Z,8.50
2022-12-18T21:54:20.048Z,8.63
2022-12-18T21:56:57.541Z,9.48
2022-12-18T21:59:29.569Z,9.32
2022-12-18T22:01:59.063Z,8.07
2022-12-18T22:04:26.489Z,8.65
2022-12-18T22:06:53.438Z,9.30
2022-12-18T22:09:22.278Z,10.20
2022-12-18T22:11:49.769Z,7.03
2022-12-18T22:14:19.849Z,9.33
2022-12-18T22:16:46.395Z,7.57
2022-12-18T22:19:14.134Z,8.27
2022-12-18T22:21:43.813Z,8.98
2022-12-18T22:24:22.960Z,9.38
2022-12-18T22:26:51.265Z,8.30
2022-12-18T22:29:38.797Z,9.60
2022-12-18T22:32:06.553Z,7.68
2022-12-18T22:34:36.583Z,9.27
2022-12-18T22:37:03.645Z,9.23
2022-12-18T22:39:30.740Z,8.03
2022-12-18T22:41:58.231Z,8.27
2022-12-18T22:44:27.755Z,8.13
2022-12-18T22:46:59.932Z,10.65
2022-12-18T22:49:33.865Z,8.13
2022-12-18T22:52:01.394Z,9.57
2022-12-18T22:54:27.766Z,10.10
2022-12-18T22:56:54.083Z,8.15
2022-12-18T22:59:23.100Z,9.82
2022-12-18T23:01:54.161Z,8.43
2022-12-18T23:04:31.296Z,8.67
2022-12-18T23:07:04.620Z,7.15
2022-12-18T23:09:30.995Z,9.70
2022-12-18T23:11:57.386Z,9.65
2022-12-18T23:14:23.706Z,10.43
2022-12-18T23:16:52.209Z,10.37
2022-12-18T23:19:19.429Z,8.75
2022-12-18T23:21:45.805Z,10.30
2022-12-18T23:24:12.166Z,9.95
2022-12-18T23:26:38.564Z,9.85
2022-12-18T23:29:05.092Z,9.97
2022-12-18T23:31:34.302Z,9.85
2022-12-18T23:34:01.830Z,9.93
2022-12-18T23:36:29.292Z,9.35
2022-12-18T23:38:59.592Z,9.68
2022-12-18T23:41:30.137Z,9.23
2022-12-18T23:43:57.552Z,10.55
2022-12-18T23:46:25.599Z,9.73
2022-12-18T23:48:52.398Z,11.20
2022-12-18T23:51:23.236Z,11.32
2022-12-18T23:53:50.134Z,9.00
2022-12-18T23:56:16.752Z,11.38
2022-12-18T23:58:43.715Z,10.23
